Time;durP1;ratioP1;P1;durP2;ratioP2;P2;SDS_P1;SDS_P2;PMS_P1;PMS_P2;Temp;Humidity;BMP_temperature;BMP_pressure;BME280_temperature;BME280_humidity;BME280_pressure;Samples;Min_cycle;Max_cycle;Signal;HPM_P1;HPM_P2
2022/01/11 05:00:50;;;;;;;0.10;0.10;;;;;;;0.61;100.00;94416.63;6193081;23;20353;-77
2022/01/11 05:03:18;;;;;;;0.32;0.10;;;;;;;0.53;100.00;94415.50;6190394;23;20014;-78
2022/01/11 05:05:45;;;;;;;0.38;0.10;;;;;;;0.63;100.00;94420.66;6193234;23;20001;-79
2022/01/11 05:08:11;;;;;;;0.10;0.10;;;;;;;0.55;100.00;94417.13;6191399;23;20007;-79
2022/01/11 05:10:42;;;;;;;0.20;0.10;;;;;;;0.59;100.00;94423.56;6205865;23;20005;-79
2022/01/11 05:13:07;;;;;;;0.10;0.10;;;;;;;0.44;100.00;94421.34;6235685;23;20016;-79
2022/01/11 05:15:32;;;;;;;0.10;0.10;;;;;;;0.49;100.00;94431.97;6226482;23;20008;-80
2022/01/11 05:17:58;;;;;;;0.13;0.10;;;;;;;0.63;100.00;94430.03;6228462;23;20094;-80
2022/01/11 05:20:23;;;;;;;0.10;0.10;;;;;;;0.52;100.00;94428.34;6235371;22;20016;-80
2022/01/11 05:22:49;;;;;;;0.47;0.20;;;;;;;0.26;100.00;94414.34;6201306;22;20004;-78
2022/01/11 05:25:15;;;;;;;0.20;0.20;;;;;;;0.28;100.00;94420.97;6188721;22;20052;-80
2022/01/11 05:27:41;;;;;;;0.10;0.10;;;;;;;0.36;100.00;94421.16;6198805;22;20009;-78
2022/01/11 05:30:09;;;;;;;0.15;0.15;;;;;;;0.23;100.00;94423.06;6159936;23;20346;-78
2022/01/11 05:32:35;;;;;;;0.20;0.20;;;;;;;0.47;100.00;94446.56;6185339;23;20470;-78
2022/01/11 05:35:03;;;;;;;0.30;0.20;;;;;;;0.31;100.00;94430.91;6198046;23;20020;-79
2022/01/11 05:37:29;;;;;;;0.30;0.20;;;;;;;0.28;100.00;94433.69;6204776;22;20034;-79
2022/01/11 05:39:55;;;;;;;0.20;0.20;;;;;;;0.35;100.00;94426.38;6166651;23;20001;-79
2022/01/11 05:42:20;;;;;;;2.58;0.20;;;;;;;0.39;100.00;94423.44;6187479;23;20005;-79
2022/01/11 05:44:46;;;;;;;0.20;0.20;;;;;;;0.39;100.00;94441.28;6163075;23;20001;-79
2022/01/11 05:47:12;;;;;;;0.10;0.10;;;;;;;0.31;100.00;94430.91;6178874;23;19996;-81
2022/01/11 05:49:38;;;;;;;0.85;0.30;;;;;;;0.58;100.00;94462.75;6201738;23;20000;-78
2022/01/11 05:52:03;;;;;;;0.10;0.10;;;;;;;0.30;100.00;94429.28;6197892;23;20036;-80
2022/01/11 05:54:29;;;;;;;0.55;0.30;;;;;;;0.26;100.00;94429.63;6197032;23;20009;-77
2022/01/11 05:59:30;;;;;;;0.50;0.40;;;;;;;0.32;100.00;94447.78;6225181;23;20012;-79
2022/01/11 06:01:55;;;;;;;0.30;0.30;;;;;;;0.31;100.00;94456.34;6211789;23;20012;-79
2022/01/11 06:04:21;;;;;;;0.32;0.20;;;;;;;0.28;100.00;94448.97;6192723;23;20012;-78
2022/01/11 06:06:47;;;;;;;0.20;0.20;;;;;;;0.43;100.00;94473.19;6175864;23;20012;-79
2022/01/11 06:09:12;;;;;;;0.30;0.20;;;;;;;0.31;100.00;94461.44;6229981;23;20020;-80
2022/01/11 06:11:38;;;;;;;0.20;0.20;;;;;;;0.50;100.00;94476.06;6177300;23;20020;-79
2022/01/11 06:14:04;;;;;;;0.40;0.20;;;;;;;0.48;100.00;94483.03;6189841;23;20068;-79
2022/01/11 06:19:05;;;;;;;0.22;0.13;;;;;;;0.70;100.00;94492.31;6232792;22;20027;-77
2022/01/11 06:21:30;;;;;;;0.10;0.10;;;;;;;0.54;100.00;94490.19;6187802;23;20446;-77
2022/01/11 06:23:56;;;;;;;0.10;0.10;;;;;;;0.66;100.00;94496.84;6191289;23;20026;-76
2022/01/11 06:26:21;;;;;;;0.10;0.10;;;;;;;0.60;100.00;94502.44;6215489;23;20067;-79
2022/01/11 06:28:47;;;;;;;0.08;0.05;;;;;;;0.70;100.00;94499.94;6204316;23;20005;-79
2022/01/11 06:31:13;;;;;;;0.30;0.17;;;;;;;0.59;100.00;94502.53;6209054;23;20500;-81
2022/01/11 06:33:38;;;;;;;0.20;0.10;;;;;;;0.65;100.00;94504.59;6211092;23;19997;-79
2022/01/11 06:36:09;;;;;;;0.00;0.00;;;;;;;0.61;100.00;94514.22;6237210;23;20004;-79
2022/01/11 06:41:11;;;;;;;0.13;0.10;;;;;;;0.46;100.00;94487.41;6215475;23;20021;-80
2022/01/11 06:46:11;;;;;;;0.17;0.13;;;;;;;0.61;100.00;94521.84;6201415;23;20106;-79
2022/01/11 06:48:37;;;;;;;0.05;0.05;;;;;;;0.50;100.00;94502.34;6216493;23;20020;-78
2022/01/11 07:04:02;;;;;;;0.43;0.05;;;;;;;0.87;100.00;94555.44;6255047;22;19911;-81
2022/01/11 07:06:28;;;;;;;1.25;0.10;;;;;;;0.68;100.00;94522.19;6217120;23;19996;-81
2022/01/11 07:08:53;;;;;;;0.10;0.10;;;;;;;0.82;100.00;94567.75;6154211;23;20036;-84
2022/01/11 07:11:21;;;;;;;0.10;0.10;;;;;;;0.86;100.00;94571.69;6226891;23;20947;-78
2022/01/11 07:13:47;;;;;;;0.20;0.10;;;;;;;0.58;100.00;94545.03;6243171;23;20040;-78
2022/01/11 07:47:14;;;;;;;0.95;0.10;;;;;;;0.59;100.00;94594.22;6216914;23;20055;-80
2022/01/11 07:52:16;;;;;;;0.28;0.20;;;;;;;0.53;100.00;94591.25;6228757;23;20011;-80
2022/01/11 07:57:17;;;;;;;0.30;0.20;;;;;;;0.62;100.00;94599.91;6232387;23;20013;-81
2022/01/11 07:59:42;;;;;;;0.75;0.20;;;;;;;0.60;100.00;94595.84;6173065;23;20126;-79
2022/01/11 08:02:08;;;;;;;0.30;0.25;;;;;;;0.78;100.00;94623.25;6177006;23;20016;-77
2022/01/11 08:04:33;;;;;;;0.25;0.25;;;;;;;0.69;100.00;94610.41;6195184;23;20023;-79
2022/01/11 08:09:37;;;;;;;0.30;0.30;;;;;;;0.58;100.00;94611.25;6213446;23;20029;-80
2022/01/11 08:27:19;;;;;;;0.17;0.15;;;;;;;0.41;100.00;94625.31;6235440;23;19916;-80
2022/01/11 08:29:46;;;;;;;0.10;0.10;;;;;;;0.30;100.00;94621.94;6190947;23;20036;-81
2022/01/11 08:32:12;;;;;;;0.20;0.20;;;;;;;0.59;100.00;94624.78;6184464;23;19997;-80
2022/01/11 08:37:14;;;;;;;0.20;0.20;;;;;;;0.47;100.00;94629.09;6191063;23;20204;-78
2022/01/11 08:47:30;;;;;;;0.20;0.20;;;;;;;0.67;100.00;94640.31;6191735;23;20019;-78
2022/01/11 09:31:18;;;;;;;0.20;0.20;;;;;;;0.77;100.00;94677.66;6209038;23;20080;-79
2022/01/11 09:33:44;;;;;;;0.93;0.15;;;;;;;0.85;100.00;94688.09;6193159;23;20008;-81
2022/01/11 09:36:09;;;;;;;0.20;0.20;;;;;;;0.89;100.00;94686.94;6187421;23;20031;-76
2022/01/11 09:43:46;;;;;;;0.10;0.10;;;;;;;0.67;100.00;94668.34;6237113;23;20226;-80
2022/01/11 09:51:22;;;;;;;0.13;0.10;;;;;;;0.81;100.00;94698.63;6249406;23;20016;-79
2022/01/11 09:53:48;;;;;;;0.57;0.10;;;;;;;0.78;100.00;94679.31;6236933;23;20047;-80
2022/01/11 09:56:14;;;;;;;0.13;0.13;;;;;;;0.82;100.00;94683.25;6212372;23;20008;-80
2022/01/11 09:58:41;;;;;;;0.20;0.20;;;;;;;0.97;100.00;94710.06;6189702;23;20012;-79
2022/01/11 10:01:07;;;;;;;0.10;0.10;;;;;;;0.58;100.00;94681.78;6206710;23;19985;-78
2022/01/11 10:04:00;;;;;;;0.10;0.10;;;;;;;0.53;100.00;94672.75;6207911;23;20011;-78
2022/01/11 10:06:26;;;;;;;0.25;0.10;;;;;;;0.67;100.00;94674.25;6180910;23;20013;-79
2022/01/11 10:09:12;;;;;;;0.25;0.20;;;;;;;0.62;100.00;94675.50;6201280;23;20029;-79
2022/01/11 10:11:42;;;;;;;0.20;0.20;;;;;;;0.66;100.00;94679.44;6202613;23;19997;-78
2022/01/11 10:14:25;;;;;;;0.10;0.10;;;;;;;0.87;100.00;94704.06;6186668;22;19989;-77
2022/01/11 10:17:06;;;;;;;0.30;0.25;;;;;;;0.64;100.00;94709.31;6218902;23;20035;-77
2022/01/11 10:19:32;;;;;;;0.30;0.22;;;;;;;0.62;100.00;94698.44;6203544;23;20508;-78
2022/01/11 10:21:59;;;;;;;0.20;0.20;;;;;;;0.52;100.00;94683.84;6205383;23;20131;-77
2022/01/11 10:24:42;;;;;;;0.20;0.20;;;;;;;0.71;100.00;94700.25;6201286;23;20091;-79
2022/01/11 10:27:21;;;;;;;0.40;0.20;;;;;;;0.64;100.00;94712.69;6235340;23;19980;-79
2022/01/11 10:29:52;;;;;;;0.10;0.10;;;;;;;0.43;100.00;94674.38;6178789;23;20008;-78
2022/01/11 10:32:19;;;;;;;0.30;0.20;;;;;;;0.57;100.00;94680.97;6181903;23;20019;-78
2022/01/11 10:34:49;;;;;;;0.30;0.30;;;;;;;0.66;100.00;94697.28;6212598;23;20016;-78
2022/01/11 10:37:17;;;;;;;0.20;0.20;;;;;;;0.65;100.00;94716.84;6207997;23;20047;-79
2022/01/11 10:39:44;;;;;;;0.30;0.30;;;;;;;0.40;100.00;94682.25;6202171;23;20021;-77
2022/01/11 10:42:27;;;;;;;0.28;0.20;;;;;;;0.46;100.00;94686.06;6232002;23;20037;-79
2022/01/11 10:44:56;;;;;;;0.22;0.22;;;;;;;0.68;100.00;94708.97;6203411;23;20001;-79
2022/01/11 10:47:26;;;;;;;0.85;0.30;;;;;;;0.42;100.00;94684.66;6181984;23;20016;-77
2022/01/11 10:49:54;;;;;;;0.38;0.20;;;;;;;0.56;100.00;94698.91;6182721;23;20068;-78
2022/01/11 11:08:10;;;;;;;0.40;0.40;;;;;;;0.43;100.00;94689.66;6223627;23;20043;-82
2022/01/11 11:10:43;;;;;;;0.40;0.30;;;;;;;0.58;100.00;94694.50;6186836;23;20025;-79
2022/01/11 11:13:17;;;;;;;0.30;0.30;;;;;;;0.38;100.00;94684.13;6189478;23;20068;-80
2022/01/11 11:20:54;;;;;;;0.30;0.30;;;;;;;0.59;100.00;94730.03;6232663;23;19916;-79
2022/01/11 11:23:20;;;;;;;0.30;0.30;;;;;;;0.45;100.00;94720.91;6203396;23;20021;-80
2022/01/11 11:28:21;;;;;;;0.50;0.50;;;;;;;0.33;100.00;94724.38;6245346;23;20017;-78
2022/01/11 11:33:22;;;;;;;0.50;0.50;;;;;;;0.44;100.00;94724.38;6214133;23;20024;-77
2022/01/11 11:35:49;;;;;;;0.50;0.40;;;;;;;0.08;100.00;94691.50;6240136;23;20012;-79
2022/01/11 11:38:15;;;;;;;0.73;0.60;;;;;;;0.26;100.00;94699.47;6207059;23;20031;-78
2022/01/11 11:40:42;;;;;;;0.60;0.43;;;;;;;0.46;100.00;94729.34;6184358;23;19988;-79
2022/01/11 11:43:12;;;;;;;1.10;0.60;;;;;;;0.39;100.00;94728.19;6207115;23;20054;-79
2022/01/11 11:45:39;;;;;;;0.60;0.60;;;;;;;0.26;100.00;94707.09;6214388;23;20008;-81
2022/01/11 11:50:46;;;;;;;0.80;0.65;;;;;;;0.39;100.00;94754.47;6228618;23;20035;-79
2022/01/11 11:53:30;;;;;;;0.73;0.73;;;;;;;0.10;100.00;94714.28;6209950;23;19992;-81
2022/01/11 11:56:22;;;;;;;0.82;0.75;;;;;;;0.38;100.00;94742.69;6180102;23;20450;-78
2022/01/11 11:58:55;;;;;;;0.77;0.70;;;;;;;0.05;100.00;94707.00;6179569;23;19989;-80
2022/01/11 12:01:41;;;;;;;0.80;0.80;;;;;;;0.06;100.00;94710.34;6238989;23;20005;-81
2022/01/11 12:04:19;;;;;;;0.95;0.90;;;;;;;0.26;100.00;94748.66;6181795;23;20031;-81
2022/01/11 12:06:49;;;;;;;0.70;0.70;;;;;;;0.01;100.00;94718.31;6200806;23;20059;-80
2022/01/11 12:09:20;;;;;;;0.63;0.63;;;;;;;0.05;100.00;94724.81;6179105;23;20009;-79
2022/01/11 12:11:48;;;;;;;1.08;0.90;;;;;;;-0.06;100.00;94719.69;6154758;23;20043;-80
2022/01/11 12:40:35;;;;;;;1.42;1.20;;;;;;;-0.37;100.00;94727.94;6230548;22;20004;-84
2022/01/11 13:01:22;;;;;;;1.63;1.38;;;;;;;-0.52;100.00;94764.63;6217423;23;19904;-82
2022/01/11 13:27:08;;;;;;;1.98;1.70;;;;;;;-0.42;100.00;94785.97;6209346;23;20029;-80
2022/01/11 13:29:36;;;;;;;2.20;2.00;;;;;;;-0.26;100.00;94784.75;6190101;23;19992;-80
2022/01/11 13:32:02;;;;;;;1.65;1.42;;;;;;;-0.43;100.00;94780.06;6212570;23;20008;-80
2022/01/11 13:34:27;;;;;;;1.92;1.65;;;;;;;-0.27;100.00;94789.94;6178038;23;20009;-80
2022/01/11 13:36:55;;;;;;;1.92;1.80;;;;;;;-0.31;100.00;94784.25;6210605;23;20048;-79
2022/01/11 13:44:32;;;;;;;2.28;2.08;;;;;;;-0.46;100.00;94795.53;6192572;23;20017;-81
2022/01/11 13:49:33;;;;;;;2.30;2.10;;;;;;;-0.11;100.00;94826.09;6237051;23;19916;-79
2022/01/11 13:52:08;;;;;;;2.72;2.47;;;;;;;-0.28;100.00;94799.28;6212089;23;20021;-79
2022/01/11 13:54:40;;;;;;;2.45;2.25;;;;;;;-0.34;100.00;94801.47;6232427;23;20001;-79
2022/01/11 13:57:09;;;;;;;2.25;1.90;;;;;;;-0.35;100.00;94804.94;6205429;23;20072;-82
2022/01/11 13:59:35;;;;;;;2.97;2.70;;;;;;;-0.35;100.00;94799.88;6185537;23;20009;-81
2022/01/11 14:02:07;;;;;;;2.50;2.30;;;;;;;-0.57;100.00;94809.00;6202925;23;20004;-80
2022/01/11 14:04:50;;;;;;;2.15;1.98;;;;;;;-0.33;100.00;94828.53;6199265;23;20008;-80
2022/01/11 14:07:21;;;;;;;2.92;2.63;;;;;;;-0.30;100.00;94815.59;6192950;23;20002;-80
2022/01/11 14:10:03;;;;;;;2.40;2.17;;;;;;;-0.56;100.00;94813.16;6171808;23;20378;-76
2022/01/11 14:12:30;;;;;;;2.97;2.70;;;;;;;-0.46;100.00;94820.97;6224664;23;20012;-79
2022/01/11 14:14:59;;;;;;;3.22;2.92;;;;;;;-0.34;100.00;94845.53;6201896;23;20079;-80
2022/01/11 14:17:28;;;;;;;2.85;2.55;;;;;;;-0.62;100.00;94820.41;6177651;23;20012;-80
2022/01/11 14:20:00;;;;;;;3.35;2.95;;;;;;;-0.71;100.00;94826.97;6201972;23;20374;-81
2022/01/11 14:22:42;;;;;;;2.80;2.50;;;;;;;-0.77;100.00;94817.19;6207645;23;20004;-80
2022/01/11 14:56:19;;;;;;;3.50;3.20;;;;;;;-1.27;100.00;94875.69;6189330;23;20769;-79
2022/01/11 15:04:02;;;;;;;3.70;3.40;;;;;;;-1.34;100.00;94885.44;6187837;23;20994;-78
2022/01/11 16:23:32;;;;;;;4.45;3.97;;;;;;;-1.37;100.00;94969.44;6194629;23;20053;-80
2022/01/11 17:02:14;;;;;;;4.15;3.75;;;;;;;-1.16;100.00;95031.56;6205626;22;20005;-79
2022/01/11 17:12:32;;;;;;;4.95;4.43;;;;;;;-1.00;100.00;95036.47;6187733;22;20027;-79
2022/01/11 17:38:15;;;;;;;4.70;3.42;;;;;;;-1.20;100.00;95025.06;6209204;22;20425;-81
2022/01/11 18:45:18;;;;;;;4.70;3.80;;;;;;;-1.09;96.92;95025.16;6185728;23;20032;-81
2022/01/11 19:23:56;;;;;;;3.65;3.00;;;;;;;-1.18;96.11;95065.56;6157770;23;20095;-78
2022/01/11 20:05:10;;;;;;;3.95;3.50;;;;;;;-0.94;95.05;95081.00;6225838;22;20028;-81
2022/01/11 22:03:18;;;;;;;5.88;4.55;;;;;;;-2.03;100.00;95154.63;6224814;22;20068;-79
